createdAt,value
2022-08-05T00:01:49.006Z,27.86
2022-08-05T00:04:18.278Z,27.76
2022-08-05T00:06:47.183Z,27.61
2022-08-05T00:09:20.298Z,27.59
2022-08-05T00:11:55.700Z,27.57
2022-08-05T00:14:31.360Z,27.53
2022-08-05T00:17:02.044Z,27.45
2022-08-05T00:19:33.432Z,27.45
2022-08-05T00:22:11.330Z,27.42
2022-08-05T00:24:42.210Z,27.39
2022-08-05T00:27:28.507Z,27.35
2022-08-05T00:30:00.426Z,27.23
2022-08-05T00:32:31.503Z,27.23
2022-08-05T00:35:06.291Z,27.26
2022-08-05T00:37:53.158Z,27.16
2022-08-05T00:40:27.506Z,27.18
2022-08-05T00:42:59.344Z,27.12
2022-08-05T00:45:38.446Z,27.09
2022-08-05T00:48:14.656Z,27.05
2022-08-05T00:50:46.594Z,27.07
2022-08-05T00:54:01.296Z,26.98
2022-08-05T00:56:09.753Z,26.88
2022-08-05T00:58:38.345Z,26.85
2022-08-05T01:01:09.101Z,26.83
2022-08-05T01:03:39.207Z,26.76
2022-08-05T01:06:13.982Z,26.75
2022-08-05T01:08:44.745Z,26.70
2022-08-05T01:11:37.202Z,26.60
2022-08-05T01:14:28.415Z,26.49
2022-08-05T01:17:12.585Z,26.47
2022-08-05T01:20:07.024Z,26.52
2022-08-05T01:23:15.098Z,26.52
2022-08-05T01:26:19.943Z,26.34
2022-08-05T01:28:57.611Z,26.33
2022-08-05T01:31:44.771Z,26.28
2022-08-05T01:34:19.670Z,26.25
2022-08-05T01:37:04.817Z,26.15
2022-08-05T01:39:46.251Z,26.09
2022-08-05T01:42:20.074Z,26.07
2022-08-05T01:44:54.398Z,26.15
2022-08-05T01:47:24.919Z,26.18
2022-08-05T01:50:15.196Z,26.05
2022-08-05T01:52:49.687Z,26.06
2022-08-05T01:55:22.993Z,26.15
2022-08-05T01:58:10.898Z,26.10
2022-08-05T02:00:51.410Z,26.08
2022-08-05T02:03:31.435Z,25.95
2022-08-05T02:06:03.679Z,25.96
2022-08-05T02:08:58.307Z,25.89
2022-08-05T02:11:37.206Z,25.90
2022-08-05T02:14:21.772Z,25.88
2022-08-05T02:16:53.373Z,25.89
2022-08-05T02:19:47.413Z,25.83
2022-08-05T02:22:28.706Z,25.80
2022-08-05T02:25:05.855Z,25.73
2022-08-05T02:27:58.883Z,25.65
2022-08-05T02:30:54.566Z,25.72
2022-08-05T02:33:38.636Z,25.64
2022-08-05T02:36:13.699Z,25.53
2022-08-05T02:38:53.414Z,25.55
2022-08-05T02:41:28.353Z,25.47
2022-08-05T02:44:13.104Z,25.52
2022-08-05T02:46:58.400Z,25.41
2022-08-05T02:49:37.729Z,25.48
2022-08-05T02:52:29.728Z,25.40
2022-08-05T02:55:05.569Z,25.36
2022-08-05T02:58:09.882Z,25.48
2022-08-05T03:00:24.804Z,25.57
2022-08-05T03:02:54.036Z,25.44
2022-08-05T03:06:54.113Z,25.29
2022-08-05T03:08:11.695Z,25.12
2022-08-05T03:11:55.691Z,24.76
2022-08-05T03:13:51.157Z,24.63
2022-08-05T03:16:22.456Z,24.57
2022-08-05T03:18:51.421Z,24.63
2022-08-05T03:21:20.381Z,24.71
2022-08-05T03:23:50.143Z,24.74
2022-08-05T03:26:32.093Z,24.68
2022-08-05T03:29:01.569Z,24.67
2022-08-05T03:31:55.961Z,24.55
2022-08-05T03:34:19.376Z,24.53
2022-08-05T03:36:52.597Z,24.65
2022-08-05T03:39:26.759Z,24.68
2022-08-05T03:41:56.614Z,24.58
2022-08-05T03:44:25.771Z,24.63
2022-08-05T03:46:57.613Z,24.69
2022-08-05T03:49:31.017Z,24.71
2022-08-05T03:52:36.507Z,24.63
2022-08-05T03:56:04.331Z,24.63
2022-08-05T03:58:18.484Z,24.41
2022-08-05T04:00:52.504Z,24.61
2022-08-05T04:03:28.332Z,24.45
2022-08-05T04:05:59.363Z,24.30
2022-08-05T04:08:35.959Z,24.24
2022-08-05T04:11:08.574Z,24.24
2022-08-05T04:13:51.008Z,24.22
2022-08-05T04:16:24.408Z,24.24
2022-08-05T04:18:54.917Z,24.20
2022-08-05T04:22:05.327Z,24.23
2022-08-05T04:24:19.129Z,24.20
2022-08-05T04:26:51.173Z,24.19
2022-08-05T04:29:19.936Z,24.24
2022-08-05T04:31:49.628Z,24.21
2022-08-05T04:34:33.948Z,24.24
2022-08-05T04:37:04.029Z,24.31
2022-08-05T04:39:33.603Z,24.31
2022-08-05T04:42:04.157Z,24.19
2022-08-05T04:44:32.308Z,24.21
2022-08-05T04:47:08.649Z,24.20
2022-08-05T04:50:03.031Z,24.06
2022-08-05T04:52:27.359Z,23.95
2022-08-05T04:54:57.180Z,23.99
2022-08-05T04:57:28.773Z,23.98
2022-08-05T04:59:58.380Z,23.94
2022-08-05T05:02:41.149Z,23.97
2022-08-05T05:05:26.032Z,23.99
2022-08-05T05:08:04.656Z,23.95
2022-08-05T05:10:47.308Z,23.92
2022-08-05T05:13:24.912Z,24.00
2022-08-05T05:16:00.524Z,24.03
2022-08-05T05:18:33.253Z,24.14
2022-08-05T05:21:03.744Z,24.08
2022-08-05T05:23:39.247Z,24.13
2022-08-05T05:26:28.335Z,24.16
2022-08-05T05:29:02.131Z,24.14
2022-08-05T05:34:01.938Z,24.23
2022-08-05T05:36:31.799Z,24.22
2022-08-05T05:39:00.292Z,24.40
2022-08-05T05:41:40.390Z,24.51
2022-08-05T05:44:35.860Z,24.49
2022-08-05T05:47:04.181Z,24.50
2022-08-05T05:49:33.147Z,24.43
2022-08-05T05:52:05.835Z,24.52
2022-08-05T05:54:50.247Z,24.38
2022-08-05T05:57:20.227Z,24.25
2022-08-05T05:59:48.993Z,24.35
2022-08-05T06:02:36.927Z,24.40
2022-08-05T06:05:10.432Z,24.52
2022-08-05T06:08:01.261Z,24.57
2022-08-05T06:10:36.261Z,24.71
2022-08-05T06:13:05.412Z,24.71
2022-08-05T06:16:30.334Z,24.82
2022-08-05T06:18:31.173Z,24.99
2022-08-05T06:21:00.668Z,25.10
2022-08-05T06:23:32.070Z,25.29
2022-08-05T06:26:20.726Z,25.63
2022-08-05T06:28:49.940Z,25.43
2022-08-05T06:31:21.756Z,25.17
2022-08-05T06:34:07.406Z,25.28
2022-08-05T06:36:57.366Z,25.44
2022-08-05T06:39:27.871Z,25.90
2022-08-05T06:41:58.841Z,26.02
2022-08-05T06:44:27.796Z,25.95
2022-08-05T06:46:56.422Z,25.79
2022-08-05T06:50:01.494Z,25.93
2022-08-05T06:52:38.292Z,26.00
2022-08-05T06:55:02.450Z,26.23
2022-08-05T06:57:57.258Z,26.31
2022-08-05T07:00:24.481Z,26.36
2022-08-05T07:02:54.317Z,26.18
2022-08-05T07:05:31.906Z,26.15
2022-08-05T07:08:10.934Z,26.21
2022-08-05T07:10:53.251Z,25.98
2022-08-05T07:13:57.802Z,25.94
2022-08-05T07:17:57.334Z,25.80
2022-08-05T07:22:27.788Z,25.72
2022-08-05T07:25:22.480Z,25.77
2022-08-05T07:27:58.585Z,25.80
2022-08-05T07:30:38.725Z,26.02
2022-08-05T07:33:16.566Z,26.10
2022-08-05T07:36:04.850Z,25.99
2022-08-05T07:38:43.549Z,25.79
2022-08-05T07:42:13.332Z,25.84
2022-08-05T07:44:18.646Z,25.75
2022-08-05T07:46:49.284Z,25.62
2022-08-05T07:49:19.569Z,25.58
2022-08-05T07:51:53.625Z,25.63
2022-08-05T07:54:30.603Z,25.51
2022-08-05T07:57:13.864Z,25.54
2022-08-05T07:59:51.681Z,25.71
2022-08-05T08:02:31.241Z,25.68
2022-08-05T08:05:17.568Z,25.64
2022-08-05T08:08:00.274Z,25.65
2022-08-05T08:10:29.389Z,25.18
2022-08-05T08:12:58.933Z,24.80
2022-08-05T08:16:33.296Z,24.76
2022-08-05T08:18:15.480Z,24.75
2022-08-05T08:21:01.839Z,24.64
2022-08-05T08:24:01.409Z,24.37
2022-08-05T08:26:26.587Z,24.25
2022-08-05T08:29:21.780Z,24.09
2022-08-05T08:31:49.023Z,24.16
2022-08-05T08:34:30.790Z,24.37
2022-08-05T08:37:03.247Z,24.46
2022-08-05T08:39:37.680Z,24.39
2022-08-05T08:42:33.624Z,24.30
2022-08-05T08:45:19.799Z,24.37
2022-08-05T08:48:10.578Z,24.34
2022-08-05T08:51:03.994Z,24.20
2022-08-05T08:53:26.865Z,23.94
2022-08-05T08:56:04.356Z,23.96
2022-08-05T08:58:43.455Z,23.92
2022-08-05T09:01:18.488Z,24.16
2022-08-05T09:03:54.517Z,24.17
2022-08-05T09:06:29.449Z,24.20
2022-08-05T09:09:02.272Z,24.35
2022-08-05T09:11:51.155Z,24.42
2022-08-05T09:14:58.425Z,24.51
2022-08-05T09:17:40.198Z,24.69
2022-08-05T09:20:04.778Z,24.94
2022-08-05T09:23:18.657Z,25.31
2022-08-05T09:26:10.476Z,25.65
2022-08-05T09:28:44.742Z,25.90
2022-08-05T09:31:43.881Z,26.18
2022-08-05T09:34:07.637Z,26.56
2022-08-05T09:36:53.932Z,26.78
2022-08-05T09:39:41.200Z,27.17
2022-08-05T09:42:23.271Z,27.29
2022-08-05T09:45:03.158Z,27.46
2022-08-05T09:47:48.096Z,27.36
2022-08-05T09:50:37.988Z,27.85
2022-08-05T09:53:12.044Z,27.64
2022-08-05T09:56:04.556Z,27.65
2022-08-05T09:58:33.615Z,27.98
2022-08-05T10:01:15.084Z,28.15
2022-08-05T10:04:12.511Z,28.46
2022-08-05T10:06:49.976Z,28.75
2022-08-05T10:09:29.936Z,28.74
2022-08-05T10:12:30.785Z,29.03
2022-08-05T10:15:26.639Z,28.94
2022-08-05T10:18:11.619Z,29.91
2022-08-05T10:20:48.864Z,29.98
2022-08-05T10:23:56.174Z,29.90
2022-08-05T10:26:24.290Z,30.31
2022-08-05T10:29:00.442Z,30.60
2022-08-05T10:32:53.918Z,30.37
2022-08-05T10:34:17.350Z,29.34
2022-08-05T10:36:45.785Z,30.08
2022-08-05T10:39:59.337Z,30.16
2022-08-05T10:42:34.004Z,30.14
2022-08-05T10:45:21.152Z,29.93
2022-08-05T10:48:29.848Z,29.56
2022-08-05T10:51:21.942Z,30.45
2022-08-05T10:53:58.432Z,30.00
2022-08-05T10:56:45.992Z,29.73
2022-08-05T11:00:04.150Z,30.43
2022-08-05T11:02:14.554Z,30.89
2022-08-05T11:04:59.542Z,30.41
2022-08-05T11:07:33.197Z,30.48
2022-08-05T11:10:29.322Z,30.56
2022-08-05T11:12:59.173Z,30.46
2022-08-05T11:16:00.894Z,29.76
2022-08-05T11:18:34.487Z,30.24
2022-08-05T11:21:11.753Z,30.43
2022-08-05T11:24:04.787Z,29.29
2022-08-05T11:26:49.688Z,29.48
2022-08-05T11:29:41.075Z,30.22
2022-08-05T11:32:27.478Z,30.15
2022-08-05T11:34:57.440Z,30.12
2022-08-05T11:38:26.834Z,29.44
2022-08-05T11:41:14.225Z,29.53
2022-08-05T11:44:40.114Z,30.02
2022-08-05T11:47:12.034Z,29.48
2022-08-05T11:49:49.865Z,29.81
2022-08-05T11:52:29.305Z,29.74
2022-08-05T11:55:07.043Z,29.99
2022-08-05T11:58:08.639Z,29.92
2022-08-05T12:00:31.945Z,30.02
2022-08-05T12:03:28.610Z,29.56
2022-08-05T12:06:06.093Z,29.66
2022-08-05T12:08:49.851Z,29.41
2022-08-05T12:11:40.431Z,29.75
2022-08-05T12:14:10.196Z,29.90
2022-08-05T12:16:45.247Z,29.44
2022-08-05T12:20:17.214Z,30.43
2022-08-05T12:22:09.481Z,29.49
2022-08-05T12:24:49.535Z,29.58
2022-08-05T12:27:33.258Z,29.59
2022-08-05T12:30:08.097Z,29.74
2022-08-05T12:32:50.446Z,29.52
2022-08-05T12:35:21.874Z,29.58
2022-08-05T12:37:50.254Z,29.71
2022-08-05T12:40:26.746Z,29.19
2022-08-05T12:42:57.826Z,29.11
2022-08-05T12:45:42.515Z,29.67
2022-08-05T12:48:26.861Z,29.48
2022-08-05T12:52:10.796Z,29.08
2022-08-05T12:54:16.790Z,29.49
2022-08-05T12:57:13.337Z,29.48
2022-08-05T13:01:56.812Z,29.96
2022-08-05T13:02:40.119Z,29.93
2022-08-05T13:05:12.605Z,29.69
2022-08-05T13:08:01.658Z,29.65
2022-08-05T13:10:33.220Z,30.14
2022-08-05T13:13:02.685Z,29.94
2022-08-05T13:15:41.414Z,30.40
2022-08-05T13:18:21.816Z,31.20
2022-08-05T13:20:52.176Z,30.65
2022-08-05T13:23:22.462Z,30.82
2022-08-05T13:25:59.715Z,30.95
2022-08-05T13:28:32.360Z,30.01
2022-08-05T13:31:11.158Z,30.45
2022-08-05T13:34:23.085Z,30.71
2022-08-05T13:36:30.785Z,31.15
2022-08-05T13:38:58.682Z,31.00
2022-08-05T13:41:37.482Z,30.70
2022-08-05T13:44:06.219Z,30.25
2022-08-05T13:46:50.896Z,31.12
2022-08-05T13:49:22.181Z,30.48
2022-08-05T13:51:50.081Z,30.90
2022-08-05T13:54:24.918Z,31.06
2022-08-05T13:56:53.780Z,31.22
2022-08-05T13:59:24.626Z,30.59
2022-08-05T14:01:58.313Z,31.31
2022-08-05T14:04:52.462Z,31.55
2022-08-05T14:08:00.161Z,31.73
2022-08-05T14:10:28.833Z,31.13
2022-08-05T14:12:59.849Z,32.17
2022-08-05T14:16:07.071Z,30.93
2022-08-05T14:18:18.584Z,31.45
2022-08-05T14:20:54.746Z,31.27
2022-08-05T14:23:25.449Z,30.91
2022-08-05T14:25:58.533Z,30.69
2022-08-05T14:28:31.122Z,30.65
2022-08-05T14:31:00.870Z,31.05
2022-08-05T14:33:56.310Z,31.19
2022-08-05T14:36:21.262Z,30.64
2022-08-05T14:38:50.785Z,31.75
2022-08-05T14:41:18.874Z,31.13
2022-08-05T14:43:58.911Z,30.95
2022-08-05T14:46:31.490Z,30.87
2022-08-05T14:49:07.632Z,30.15
2022-08-05T14:51:37.992Z,30.74
2022-08-05T14:54:27.982Z,30.50
2022-08-05T14:56:58.271Z,30.59
2022-08-05T14:59:29.709Z,30.10
2022-08-05T15:02:14.828Z,29.65
2022-08-05T15:04:45.011Z,28.87
2022-08-05T15:08:08.546Z,27.97
2022-08-05T15:10:05.374Z,28.41
2022-08-05T15:12:57.972Z,28.05
2022-08-05T15:15:55.420Z,28.20
2022-08-05T15:18:15.832Z,27.25
2022-08-05T15:20:45.946Z,27.02
2022-08-05T15:23:14.502Z,27.04
2022-08-05T15:25:51.966Z,27.00
2022-08-05T15:28:27.669Z,26.29
2022-08-05T15:30:57.057Z,26.48
2022-08-05T15:34:19.099Z,26.09
2022-08-05T15:36:17.175Z,25.47
2022-08-05T15:40:58.278Z,25.45
2022-08-05T15:41:56.322Z,25.91
2022-08-05T15:44:32.357Z,26.11
2022-08-05T15:47:01.942Z,25.71
2022-08-05T15:49:41.866Z,25.63
2022-08-05T15:52:52.213Z,25.33
2022-08-05T15:55:16.122Z,25.39
2022-08-05T15:57:44.926Z,25.62
2022-08-05T16:00:16.726Z,25.01
2022-08-05T16:02:45.365Z,25.06
2022-08-05T16:05:15.297Z,24.86
2022-08-05T16:07:46.487Z,24.93
2022-08-05T16:10:25.355Z,24.84
2022-08-05T16:12:55.919Z,24.80
2022-08-05T16:15:24.863Z,24.80
2022-08-05T16:18:00.642Z,24.76
2022-08-05T16:20:32.519Z,24.61
2022-08-05T16:23:00.910Z,24.79
2022-08-05T16:25:34.051Z,24.89
2022-08-05T16:28:09.694Z,24.76
2022-08-05T16:30:38.816Z,24.68
2022-08-05T16:33:07.071Z,24.81
2022-08-05T16:35:42.900Z,24.80
2022-08-05T16:38:23.787Z,24.64
2022-08-05T16:41:00.147Z,24.66
2022-08-05T16:43:32.361Z,24.53
2022-08-05T16:46:03.791Z,24.21
2022-08-05T16:48:38.776Z,24.42
2022-08-05T16:51:10.033Z,24.12
2022-08-05T16:54:04.956Z,24.01
2022-08-05T16:56:31.227Z,23.69
2022-08-05T16:59:01.844Z,23.77
2022-08-05T17:01:54.949Z,23.64
2022-08-05T17:04:28.881Z,23.97
2022-08-05T17:07:01.796Z,23.72
2022-08-05T17:09:57.844Z,23.82
2022-08-05T17:12:22.683Z,23.73
2022-08-05T17:15:09.473Z,23.41
2022-08-05T17:17:41.974Z,23.20
2022-08-05T17:20:14.562Z,23.71
2022-08-05T17:22:43.215Z,23.61
2022-08-05T17:25:33.922Z,23.40
2022-08-05T17:28:01.308Z,23.55
2022-08-05T17:30:29.403Z,23.56
2022-08-05T17:32:57.844Z,23.54
2022-08-05T17:35:25.953Z,23.21
2022-08-05T17:38:04.913Z,22.90
2022-08-05T17:43:01.941Z,23.07
2022-08-05T17:45:38.030Z,22.97
2022-08-05T17:48:08.120Z,22.88
2022-08-05T17:50:36.499Z,23.03
2022-08-05T17:53:05.460Z,23.04
2022-08-05T17:55:37.851Z,23.07
2022-08-05T17:58:12.633Z,23.16
2022-08-05T18:00:47.818Z,23.04
2022-08-05T18:03:48.423Z,23.17
2022-08-05T18:06:11.018Z,22.94
2022-08-05T18:08:44.614Z,23.19
2022-08-05T18:11:23.321Z,23.31
2022-08-05T18:13:52.158Z,22.92
2022-08-05T18:16:20.743Z,22.94
2022-08-05T18:18:50.819Z,22.86
2022-08-05T18:21:22.676Z,22.90
2022-08-05T18:23:55.306Z,23.05
2022-08-05T18:26:27.600Z,22.94
2022-08-05T18:28:58.619Z,22.91
2022-08-05T18:31:33.928Z,23.03
2022-08-05T18:34:06.013Z,22.99
2022-08-05T18:36:35.648Z,23.05
2022-08-05T18:39:06.586Z,23.01
2022-08-05T18:41:57.573Z,22.92
2022-08-05T18:44:34.881Z,22.82
2022-08-05T18:47:04.540Z,22.91
2022-08-05T18:49:58.345Z,22.92
2022-08-05T18:52:41.777Z,22.96
2022-08-05T18:55:21.559Z,22.90
2022-08-05T18:57:54.148Z,22.96
2022-08-05T19:00:34.304Z,23.03
2022-08-05T19:03:04.588Z,22.83
2022-08-05T19:06:11.176Z,22.90
2022-08-05T19:08:30.440Z,23.02
2022-08-05T19:11:04.674Z,22.82
2022-08-05T19:13:35.704Z,22.77
2022-08-05T19:16:25.310Z,22.77
2022-08-05T19:18:56.787Z,22.77
2022-08-05T19:21:27.682Z,22.77
2022-08-05T19:24:12.263Z,22.57
2022-08-05T19:26:43.873Z,22.66
2022-08-05T19:29:35.758Z,22.58
2022-08-05T19:32:11.088Z,22.62
2022-08-05T19:34:40.626Z,22.50
2022-08-05T19:37:10.765Z,22.46
2022-08-05T19:39:45.999Z,22.41
2022-08-05T19:42:35.074Z,22.45
2022-08-05T19:45:06.524Z,22.29
2022-08-05T19:47:37.970Z,22.23
2022-08-05T19:50:07.627Z,22.33
2022-08-05T19:52:39.139Z,22.30
2022-08-05T19:55:08.335Z,22.28
2022-08-05T19:57:47.428Z,22.22
2022-08-05T20:00:26.079Z,22.13
2022-08-05T20:02:54.729Z,22.14
2022-08-05T20:05:24.495Z,22.04
2022-08-05T20:07:58.762Z,21.98
2022-08-05T20:10:27.528Z,22.09
2022-08-05T20:12:57.492Z,21.98
2022-08-05T20:15:51.705Z,21.97
2022-08-05T20:18:35.314Z,21.95
2022-08-05T20:21:04.687Z,21.87
2022-08-05T20:23:40.033Z,21.85
2022-08-05T20:26:21.656Z,21.81
2022-08-05T20:28:55.790Z,21.72
2022-08-05T20:31:37.324Z,21.69
2022-08-05T20:34:12.461Z,21.69
2022-08-05T20:36:43.229Z,21.51
2022-08-05T20:39:16.305Z,21.45
2022-08-05T20:41:47.950Z,21.27
2022-08-05T20:44:29.803Z,21.25
2022-08-05T20:47:02.026Z,21.24
2022-08-05T20:49:33.235Z,21.19
2022-08-05T20:52:08.814Z,21.12
2022-08-05T20:54:59.087Z,21.11
2022-08-05T20:57:43.788Z,21.03
2022-08-05T21:00:41.524Z,21.10
2022-08-05T21:03:07.926Z,21.11
2022-08-05T21:05:53.562Z,21.09
2022-08-05T21:08:26.754Z,20.97
2022-08-05T21:11:01.639Z,21.02
2022-08-05T21:13:47.959Z,21.04
2022-08-05T21:16:29.391Z,21.03
2022-08-05T21:19:00.894Z,20.92
2022-08-05T21:21:44.297Z,20.87
2022-08-05T21:24:19.913Z,20.90
2022-08-05T21:26:53.688Z,20.88
2022-08-05T21:29:31.687Z,20.82
2022-08-05T21:32:04.639Z,20.84
2022-08-05T21:34:35.568Z,20.83
2022-08-05T21:37:05.153Z,20.70
2022-08-05T21:39:34.553Z,20.71
2022-08-05T21:42:07.093Z,20.65
2022-08-05T21:44:55.560Z,20.44
2022-08-05T21:47:54.813Z,20.52
2022-08-05T21:50:14.443Z,20.53
2022-08-05T21:52:47.404Z,20.47
2022-08-05T21:55:17.094Z,20.47
2022-08-05T21:57:45.859Z,20.44
2022-08-05T22:00:15.314Z,20.46
2022-08-05T22:02:43.939Z,20.41
2022-08-05T22:05:14.172Z,20.28
2022-08-05T22:07:58.323Z,20.27
2022-08-05T22:10:28.371Z,20.20
2022-08-05T22:12:59.046Z,20.38
2022-08-05T22:16:01.563Z,20.24
2022-08-05T22:18:26.052Z,20.11
2022-08-05T22:20:55.899Z,20.29
2022-08-05T22:24:01.180Z,20.18
2022-08-05T22:26:50.694Z,19.92
2022-08-05T22:29:26.597Z,20.03
2022-08-05T22:31:59.513Z,19.92
2022-08-05T22:34:32.659Z,19.81
2022-08-05T22:37:03.946Z,19.74
2022-08-05T22:39:34.670Z,19.72
2022-08-05T22:42:12.258Z,19.64
2022-08-05T22:44:48.580Z,19.70
2022-08-05T22:47:29.725Z,19.67
2022-08-05T22:50:20.400Z,19.64
2022-08-05T22:52:50.269Z,19.58
2022-08-05T22:55:21.740Z,19.60
2022-08-05T22:57:52.161Z,19.58
2022-08-05T23:00:22.213Z,19.47
2022-08-05T23:02:52.229Z,19.53
2022-08-05T23:05:22.045Z,19.47
2022-08-05T23:07:51.597Z,19.46
2022-08-05T23:10:24.071Z,19.36
2022-08-05T23:12:55.410Z,19.25
2022-08-05T23:15:34.827Z,19.25
2022-08-05T23:18:11.367Z,19.33
2022-08-05T23:20:40.253Z,19.08
2022-08-05T23:23:11.600Z,19.02
2022-08-05T23:25:52.476Z,19.18
2022-08-05T23:28:29.218Z,19.05
2022-08-05T23:31:16.355Z,19.07
2022-08-05T23:34:05.471Z,19.13
2022-08-05T23:36:39.698Z,18.99
2022-08-05T23:39:10.067Z,18.99
2022-08-05T23:41:48.764Z,18.78
2022-08-05T23:44:17.337Z,18.77
2022-08-05T23:46:48.464Z,18.80
2022-08-05T23:49:23.653Z,18.82
2022-08-05T23:52:12.373Z,18.84
2022-08-05T23:54:46.035Z,18.77
2022-08-05T23:57:14.174Z,18.70
